createdAt,value
2023-04-11T00:01:08.148Z,5.15
2023-04-11T00:03:34.991Z,10.07
2023-04-11T00:06:01.747Z,5.40
2023-04-11T00:08:28.269Z,4.60
2023-04-11T00:10:54.961Z,4.03
2023-04-11T00:13:21.549Z,6.13
2023-04-11T00:15:48.057Z,7.60
2023-04-11T00:18:14.821Z,7.38
2023-04-11T00:20:41.334Z,5.95
2023-04-11T00:23:08.826Z,3.97
2023-04-11T00:25:37.183Z,7.60
2023-04-11T00:28:03.707Z,5.35
2023-04-11T00:30:30.640Z,7.45
2023-04-11T00:32:57.174Z,6.38
2023-04-11T00:35:23.679Z,13.02
2023-04-11T00:37:54.241Z,10.88
2023-04-11T00:40:20.825Z,10.13
2023-04-11T00:42:47.635Z,8.80
2023-04-11T00:45:14.308Z,10.27
2023-04-11T00:47:40.902Z,15.13
2023-04-11T00:50:08.147Z,11.77
2023-04-11T00:52:36.700Z,10.63
2023-04-11T00:55:03.492Z,10.35
2023-04-11T00:57:30.881Z,10.90
2023-04-11T00:59:58.267Z,12.00
2023-04-11T01:02:24.997Z,10.43
2023-04-11T01:04:53.291Z,10.73
2023-04-11T01:07:20.275Z,12.50
2023-04-11T01:09:47.288Z,13.88
2023-04-11T01:12:14.785Z,9.80
2023-04-11T01:14:41.664Z,12.20
2023-04-11T01:17:12.635Z,9.77
2023-04-11T01:19:39.194Z,14.02
2023-04-11T01:22:06.224Z,13.55
2023-04-11T01:24:33.314Z,14.63
2023-04-11T01:26:59.967Z,13.73
2023-04-11T01:29:26.435Z,13.60
2023-04-11T01:31:52.972Z,14.18
2023-04-11T01:34:19.783Z,14.52
2023-04-11T01:36:46.284Z,14.10
2023-04-11T01:39:12.908Z,14.23
2023-04-11T01:41:40.465Z,15.52
2023-04-11T01:44:07.100Z,19.75
2023-04-11T01:46:34.116Z,10.77
2023-04-11T01:49:03.726Z,11.52
2023-04-11T01:51:30.446Z,14.52
2023-04-11T01:53:56.924Z,16.27
2023-04-11T01:56:23.441Z,14.50
2023-04-11T01:58:50.051Z,27.63
2023-04-11T02:01:19.931Z,14.23
2023-04-11T02:03:46.663Z,14.63
2023-04-11T02:06:14.826Z,15.60
2023-04-11T02:08:41.296Z,16.67
2023-04-11T02:11:08.330Z,14.45
2023-04-11T02:13:35.136Z,17.98
2023-04-11T02:16:08.583Z,13.20
2023-04-11T02:18:36.413Z,20.55
2023-04-11T02:21:03.310Z,18.15
2023-04-11T02:23:29.776Z,16.38
2023-04-11T02:25:56.286Z,19.48
2023-04-11T02:28:22.790Z,17.02
2023-04-11T02:30:52.402Z,21.17
2023-04-11T02:33:19.383Z,18.17
2023-04-11T02:35:46.425Z,17.60
2023-04-11T02:38:12.965Z,18.42
2023-04-11T02:40:39.682Z,19.70
2023-04-11T02:43:06.834Z,20.73
2023-04-11T02:45:33.407Z,20.70
2023-04-11T02:48:00.954Z,19.20
2023-04-11T02:50:27.674Z,17.75
2023-04-11T02:52:54.742Z,19.92
2023-04-11T02:55:25.201Z,24.00
2023-04-11T02:57:51.962Z,17.13
2023-04-11T03:00:20.234Z,19.00
2023-04-11T03:02:56.781Z,18.20
2023-04-11T03:05:24.428Z,17.52
2023-04-11T03:07:52.979Z,23.17
2023-04-11T03:10:19.824Z,22.02
2023-04-11T03:12:46.301Z,21.00
2023-04-11T03:15:15.392Z,22.27
2023-04-11T03:17:42.183Z,19.70
2023-04-11T03:20:13.644Z,23.40
2023-04-11T03:22:45.402Z,16.73
2023-04-11T03:25:12.148Z,21.13
2023-04-11T03:27:38.936Z,23.52
2023-04-11T03:30:07.225Z,18.92
2023-04-11T03:32:40.884Z,16.98
2023-04-11T03:35:07.642Z,27.08
2023-04-11T03:37:35.018Z,18.33
2023-04-11T03:40:01.674Z,23.98
2023-04-11T03:42:28.475Z,26.05
2023-04-11T03:44:58.974Z,25.52
2023-04-11T03:47:25.813Z,21.73
2023-04-11T03:49:52.554Z,20.08
2023-04-11T03:52:19.944Z,24.48
2023-04-11T03:54:48.033Z,23.77
2023-04-11T03:57:15.962Z,22.30
2023-04-11T03:59:43.471Z,25.75
2023-04-11T04:02:12.285Z,19.75
2023-04-11T04:04:47.137Z,22.45
2023-04-11T04:07:27.523Z,19.65
2023-04-11T04:10:00.783Z,28.40
2023-04-11T04:12:27.256Z,26.80
2023-04-11T04:15:14.931Z,28.70
2023-04-11T04:17:44.280Z,28.05
2023-04-11T04:20:17.417Z,22.88
2023-04-11T04:22:49.147Z,28.38
2023-04-11T04:25:20.146Z,22.98
2023-04-11T04:27:48.386Z,25.33
2023-04-11T04:30:19.195Z,25.52
2023-04-11T04:33:00.018Z,22.25
2023-04-11T04:35:27.322Z,27.67
2023-04-11T04:37:54.356Z,25.02
2023-04-11T04:40:32.151Z,22.88
2023-04-11T04:43:03.865Z,21.73
2023-04-11T04:45:47.481Z,25.38
2023-04-11T04:48:19.365Z,23.00
2023-04-11T04:50:46.017Z,22.20
2023-04-11T04:53:13.091Z,26.10
2023-04-11T04:55:46.334Z,24.85
2023-04-11T04:58:13.106Z,27.23
2023-04-11T05:00:40.284Z,27.52
2023-04-11T05:03:17.260Z,24.65
2023-04-11T05:05:43.912Z,25.42
2023-04-11T05:08:10.432Z,24.08
2023-04-11T05:10:38.452Z,24.58
2023-04-11T05:13:06.810Z,28.73
2023-04-11T05:15:33.351Z,21.95
2023-04-11T05:18:00.237Z,22.30
2023-04-11T05:20:29.640Z,31.40
2023-04-11T05:22:57.631Z,29.42
2023-04-11T05:25:24.159Z,29.80
2023-04-11T05:27:51.449Z,31.60
2023-04-11T05:30:22.236Z,24.33
2023-04-11T05:32:49.836Z,36.78
2023-04-11T05:35:16.646Z,30.33
2023-04-11T05:37:50.426Z,30.42
2023-04-11T05:40:17.683Z,23.50
2023-04-11T05:42:44.233Z,33.15
2023-04-11T05:45:11.003Z,30.27
2023-04-11T05:47:37.615Z,31.50
2023-04-11T05:50:04.627Z,25.15
2023-04-11T05:52:31.089Z,31.15
2023-04-11T05:54:57.565Z,22.23
2023-04-11T05:57:24.137Z,26.27
2023-04-11T05:59:53.094Z,26.80
2023-04-11T06:02:19.938Z,18.60
2023-04-11T06:04:46.617Z,27.40
2023-04-11T06:07:13.131Z,25.65
2023-04-11T06:09:42.346Z,22.52
2023-04-11T06:12:09.386Z,33.95
2023-04-11T06:14:38.112Z,27.98
2023-04-11T06:17:06.243Z,30.02
2023-04-11T06:19:32.748Z,27.13
2023-04-11T06:21:59.229Z,20.13
2023-04-11T06:24:45.487Z,23.00
2023-04-11T06:27:12.170Z,26.40
2023-04-11T06:29:39.215Z,26.20
2023-04-11T06:32:06.172Z,20.92
2023-04-11T06:34:32.713Z,26.02
2023-04-11T06:36:59.324Z,26.17
2023-04-11T06:39:26.187Z,19.00
2023-04-11T06:41:52.825Z,20.60
2023-04-11T06:44:25.167Z,23.70
2023-04-11T06:46:51.894Z,22.95
2023-04-11T06:49:19.034Z,23.98
2023-04-11T06:51:51.746Z,22.55
2023-04-11T06:54:18.663Z,19.73
2023-04-11T06:56:45.794Z,14.80
2023-04-11T06:59:12.558Z,19.48
2023-04-11T07:01:39.538Z,20.65
2023-04-11T07:04:06.690Z,19.25
2023-04-11T07:06:35.712Z,17.80
2023-04-11T07:09:03.007Z,15.50
2023-04-11T07:11:29.728Z,17.52
2023-04-11T07:13:57.093Z,19.70
2023-04-11T07:16:23.809Z,16.23
2023-04-11T07:18:50.650Z,15.55
2023-04-11T07:21:17.195Z,18.52
2023-04-11T07:23:43.809Z,16.10
2023-04-11T07:26:11.302Z,19.10
2023-04-11T07:28:38.524Z,15.85
2023-04-11T07:31:06.131Z,12.35
2023-04-11T07:33:32.679Z,14.93
2023-04-11T07:35:59.482Z,13.27
2023-04-11T07:38:32.222Z,17.98
2023-04-11T07:41:00.384Z,17.60
2023-04-11T07:43:28.433Z,15.60
2023-04-11T07:45:55.842Z,13.68
2023-04-11T07:48:23.994Z,13.60
2023-04-11T07:50:50.769Z,14.05
2023-04-11T07:53:17.225Z,13.15
2023-04-11T07:55:43.908Z,13.38
2023-04-11T07:58:10.383Z,8.23
2023-04-11T08:00:37.061Z,10.73
2023-04-11T08:03:09.431Z,11.23
2023-04-11T08:05:36.529Z,14.02
2023-04-11T08:08:06.361Z,9.77
2023-04-11T08:10:33.462Z,9.88
2023-04-11T08:13:00.160Z,8.90
2023-04-11T08:15:27.201Z,10.95
2023-04-11T08:17:56.794Z,12.68
2023-04-11T08:20:24.108Z,9.10
2023-04-11T08:22:50.820Z,12.00
2023-04-11T08:25:19.838Z,8.65
2023-04-11T08:27:46.314Z,10.25
2023-04-11T08:30:13.167Z,11.50
2023-04-11T08:32:39.723Z,7.30
2023-04-11T08:35:06.374Z,14.40
2023-04-11T08:37:32.960Z,12.88
2023-04-11T08:39:59.479Z,11.18
2023-04-11T08:42:26.779Z,9.52
2023-04-11T08:44:54.869Z,10.65
2023-04-11T08:47:21.765Z,12.60
2023-04-11T08:49:48.527Z,9.93
2023-04-11T08:52:15.805Z,11.13
2023-04-11T08:54:42.320Z,12.35
2023-04-11T08:57:08.817Z,8.43
2023-04-11T08:59:35.461Z,9.35
2023-04-11T09:02:09.446Z,8.48
2023-04-11T09:04:40.827Z,7.82
2023-04-11T09:07:07.615Z,7.60
2023-04-11T09:09:36.750Z,6.18
2023-04-11T09:12:03.912Z,7.38
2023-04-11T09:14:30.825Z,6.20
2023-04-11T09:17:01.398Z,7.95
2023-04-11T09:19:28.916Z,10.20
2023-04-11T09:22:01.435Z,9.77
2023-04-11T09:24:29.746Z,7.93
2023-04-11T09:27:13.348Z,6.47
2023-04-11T09:29:45.758Z,8.70
2023-04-11T09:32:31.009Z,7.85
2023-04-11T09:35:09.790Z,6.03
2023-04-11T09:37:47.494Z,6.72
2023-04-11T09:40:14.938Z,9.32
2023-04-11T09:42:42.144Z,9.70
2023-04-11T09:45:22.161Z,11.20
2023-04-11T09:47:49.584Z,10.48
2023-04-11T09:50:16.476Z,9.45
2023-04-11T09:52:44.053Z,10.63
2023-04-11T09:55:14.343Z,6.38
2023-04-11T09:57:45.922Z,7.88
2023-04-11T10:00:19.417Z,8.48
2023-04-11T10:02:48.838Z,7.25
2023-04-11T10:05:19.346Z,9.23
2023-04-11T10:07:48.667Z,7.05
2023-04-11T10:10:22.094Z,6.50
2023-04-11T10:12:49.290Z,5.68
2023-04-11T10:15:16.241Z,6.47
2023-04-11T10:17:42.970Z,7.82
2023-04-11T10:20:28.982Z,4.93
2023-04-11T10:22:55.720Z,5.57
2023-04-11T10:25:23.713Z,5.43
2023-04-11T10:27:54.098Z,7.10
2023-04-11T10:30:45.060Z,6.47
2023-04-11T10:33:13.196Z,5.32
2023-04-11T10:36:03.894Z,5.57
2023-04-11T10:38:36.785Z,5.75
2023-04-11T10:41:17.090Z,5.07
2023-04-11T10:43:45.630Z,6.82
2023-04-11T10:46:19.036Z,7.03
2023-04-11T10:49:01.760Z,4.82
2023-04-11T10:51:32.384Z,5.43
2023-04-11T10:54:00.265Z,6.43
2023-04-11T10:56:45.887Z,5.15
2023-04-11T10:59:31.315Z,5.00
2023-04-11T11:01:58.485Z,6.05
2023-04-11T11:04:32.373Z,7.00
2023-04-11T11:07:00.152Z,5.05
2023-04-11T11:09:28.681Z,6.53
2023-04-11T11:12:11.617Z,7.00
2023-04-11T11:14:39.495Z,6.85
2023-04-11T11:17:06.693Z,4.80
2023-04-11T11:19:33.850Z,6.43
2023-04-11T11:22:03.678Z,8.20
2023-04-11T11:24:30.728Z,9.27
2023-04-11T11:26:58.005Z,5.30
2023-04-11T11:29:32.219Z,5.72
2023-04-11T11:32:00.994Z,6.38
2023-04-11T11:34:31.618Z,6.07
2023-04-11T11:37:01.967Z,4.97
2023-04-11T11:39:29.175Z,5.95
2023-04-11T11:41:56.418Z,4.97
2023-04-11T11:44:24.068Z,6.90
2023-04-11T11:47:03.040Z,4.25
2023-04-11T11:49:43.139Z,5.90
2023-04-11T11:52:09.664Z,9.27
2023-04-11T11:54:46.428Z,8.18
2023-04-11T11:57:19.970Z,5.28
2023-04-11T11:59:53.038Z,4.07
2023-04-11T12:02:20.635Z,5.22
2023-04-11T12:04:47.607Z,9.85
2023-04-11T12:07:14.717Z,5.68
2023-04-11T12:09:41.345Z,4.85
2023-04-11T12:12:11.434Z,7.25
2023-04-11T12:14:37.880Z,4.00
2023-04-11T12:17:04.335Z,5.38
2023-04-11T12:19:31.030Z,4.88
2023-04-11T12:21:57.763Z,4.00
2023-04-11T12:24:24.231Z,4.53
2023-04-11T12:27:05.589Z,5.00
2023-04-11T12:29:34.249Z,6.20
2023-04-11T12:32:00.755Z,11.43
2023-04-11T12:34:30.072Z,4.00
2023-04-11T12:36:58.056Z,2.45
2023-04-11T12:39:24.507Z,4.65
2023-04-11T12:41:50.942Z,5.78
2023-04-11T12:44:17.676Z,4.30
2023-04-11T12:46:44.207Z,4.07
2023-04-11T12:49:10.934Z,7.03
2023-04-11T12:51:37.392Z,4.85
2023-04-11T12:54:04.871Z,5.38
2023-04-11T12:56:31.398Z,3.65
2023-04-11T12:58:58.162Z,6.03
2023-04-11T13:01:24.821Z,4.78
2023-04-11T13:03:51.441Z,5.68
2023-04-11T13:06:18.971Z,5.00
2023-04-11T13:08:45.731Z,3.60
2023-04-11T13:11:12.661Z,3.90
2023-04-11T13:13:39.111Z,4.28
2023-04-11T13:16:06.548Z,4.78
2023-04-11T13:18:33.126Z,3.45
2023-04-11T13:20:59.619Z,6.93
2023-04-11T13:23:26.264Z,4.28
2023-04-11T13:25:52.772Z,4.20
2023-04-11T13:28:19.349Z,5.22
2023-04-11T13:30:46.494Z,5.00
2023-04-11T13:33:13.086Z,4.40
2023-04-11T13:35:39.589Z,3.13
2023-04-11T13:38:11.179Z,2.58
2023-04-11T13:40:39.434Z,6.47
2023-04-11T13:43:06.010Z,2.03
2023-04-11T13:45:32.572Z,3.97
2023-04-11T13:47:59.219Z,2.75
2023-04-11T13:50:25.778Z,5.22
2023-04-11T13:52:52.297Z,3.15
2023-04-11T13:55:19.039Z,3.33
2023-04-11T13:57:45.641Z,3.75
2023-04-11T14:00:12.562Z,8.13
2023-04-11T14:02:39.618Z,9.40
2023-04-11T14:05:07.594Z,5.63
2023-04-11T14:07:34.643Z,9.10
2023-04-11T14:10:01.134Z,12.38
2023-04-11T14:12:27.636Z,11.07
2023-04-11T14:14:54.926Z,7.03
2023-04-11T14:17:21.447Z,5.93
2023-04-11T14:19:48.145Z,7.93
2023-04-11T14:22:14.986Z,10.73
2023-04-11T14:24:41.733Z,6.13
2023-04-11T14:27:08.587Z,5.32
2023-04-11T14:29:37.342Z,5.38
2023-04-11T14:32:04.106Z,7.90
2023-04-11T14:34:30.575Z,5.00
2023-04-11T14:36:57.240Z,6.75
2023-04-11T14:39:23.798Z,9.00
2023-04-11T14:41:50.204Z,4.65
2023-04-11T14:44:16.799Z,5.63
2023-04-11T14:46:43.342Z,9.40
2023-04-11T14:49:09.861Z,6.28
2023-04-11T14:51:36.698Z,4.47
2023-04-11T14:54:03.203Z,4.07
2023-04-11T14:56:29.657Z,3.38
2023-04-11T14:58:56.276Z,3.90
2023-04-11T15:01:22.920Z,2.50
2023-04-11T15:03:50.287Z,2.35
2023-04-11T15:06:17.485Z,3.50
2023-04-11T15:08:44.957Z,5.90
2023-04-11T15:11:11.459Z,5.25
2023-04-11T15:13:38.310Z,3.28
2023-04-11T15:16:05.618Z,7.30
2023-04-11T15:18:32.544Z,3.25
2023-04-11T15:21:00.412Z,4.82
2023-04-11T15:23:26.940Z,6.15
2023-04-11T15:25:54.910Z,3.72
2023-04-11T15:28:22.064Z,4.30
2023-04-11T15:30:50.992Z,4.03
2023-04-11T15:33:17.745Z,3.90
2023-04-11T15:35:44.898Z,3.33
2023-04-11T15:38:11.997Z,5.15
2023-04-11T15:40:38.585Z,4.72
2023-04-11T15:43:06.379Z,4.20
2023-04-11T15:45:34.438Z,3.70
2023-04-11T15:48:01.062Z,5.72
2023-04-11T15:50:28.164Z,4.22
2023-04-11T15:52:56.041Z,4.20
2023-04-11T15:55:23.934Z,8.55
2023-04-11T15:57:52.216Z,5.65
2023-04-11T16:00:19.751Z,5.43
2023-04-11T16:02:47.305Z,5.70
2023-04-11T16:05:14.521Z,7.07
2023-04-11T16:07:42.486Z,5.88
2023-04-11T16:10:09.693Z,4.38
2023-04-11T16:12:36.816Z,7.47
2023-04-11T16:15:04.164Z,5.35
2023-04-11T16:17:30.784Z,8.80
2023-04-11T16:19:57.217Z,9.20
2023-04-11T16:22:23.650Z,7.00
2023-04-11T16:24:50.242Z,5.38
2023-04-11T16:27:16.956Z,6.53
2023-04-11T16:29:43.397Z,5.63
2023-04-11T16:32:10.649Z,7.13
2023-04-11T16:34:37.349Z,6.80
2023-04-11T16:37:03.972Z,12.43
2023-04-11T16:39:30.536Z,7.00
2023-04-11T16:41:57.426Z,7.28
2023-04-11T16:44:23.854Z,4.07
2023-04-11T16:46:50.320Z,6.90
2023-04-11T16:49:16.784Z,8.27
2023-04-11T16:51:43.254Z,6.05
2023-04-11T16:54:10.855Z,4.85
2023-04-11T16:56:37.360Z,6.93
2023-04-11T16:59:04.382Z,6.50
2023-04-11T17:01:31.687Z,7.15
2023-04-11T17:03:59.020Z,6.50
2023-04-11T17:06:27.113Z,9.55
2023-04-11T17:08:53.761Z,5.93
2023-04-11T17:11:20.379Z,8.90
2023-04-11T17:13:48.612Z,8.73
2023-04-11T17:16:17.465Z,7.03
2023-04-11T17:18:43.997Z,7.53
2023-04-11T17:21:10.726Z,4.60
2023-04-11T17:23:43.122Z,8.32
2023-04-11T17:26:10.791Z,8.57
2023-04-11T17:28:37.932Z,6.13
2023-04-11T17:31:14.602Z,6.07
2023-04-11T17:33:41.797Z,6.70
2023-04-11T17:36:09.183Z,7.95
2023-04-11T17:38:37.273Z,5.43
2023-04-11T17:41:13.410Z,8.23
2023-04-11T17:43:41.376Z,6.25
2023-04-11T17:46:08.848Z,5.70
2023-04-11T17:48:35.963Z,7.55
2023-04-11T17:51:04.143Z,7.22
2023-04-11T17:53:31.023Z,9.27
2023-04-11T17:55:58.677Z,5.50
2023-04-11T17:58:25.514Z,9.18
2023-04-11T18:00:56.312Z,6.25
2023-04-11T18:03:25.158Z,10.15
2023-04-11T18:05:52.443Z,6.80
2023-04-11T18:08:19.114Z,8.18
2023-04-11T18:10:45.995Z,6.80
2023-04-11T18:13:12.484Z,8.13
2023-04-11T18:15:38.987Z,4.22
2023-04-11T18:18:09.601Z,5.57
2023-04-11T18:20:36.547Z,8.73
2023-04-11T18:23:03.224Z,5.63
2023-04-11T18:25:29.882Z,6.85
2023-04-11T18:27:56.386Z,5.55
2023-04-11T18:30:23.082Z,6.97
2023-04-11T18:32:52.287Z,10.95
2023-04-11T18:35:19.196Z,8.38
2023-04-11T18:37:45.853Z,5.97
2023-04-11T18:40:15.911Z,7.03
2023-04-11T18:42:42.940Z,10.82
2023-04-11T18:45:11.393Z,8.70
2023-04-11T18:47:39.098Z,5.40
2023-04-11T18:50:06.087Z,9.88
2023-04-11T18:52:33.415Z,6.63
2023-04-11T18:55:00.523Z,5.78
2023-04-11T18:57:32.340Z,8.32
2023-04-11T19:00:04.146Z,6.82
2023-04-11T19:02:31.544Z,7.00
2023-04-11T19:04:58.668Z,5.63
2023-04-11T19:07:25.822Z,8.25
2023-04-11T19:09:53.030Z,7.75
2023-04-11T19:12:19.701Z,8.57
2023-04-11T19:14:46.383Z,7.55
2023-04-11T19:17:12.995Z,7.72
2023-04-11T19:19:39.538Z,8.35
2023-04-11T19:22:06.125Z,7.30
2023-04-11T19:24:32.628Z,8.65
2023-04-11T19:26:59.088Z,9.32
2023-04-11T19:29:25.972Z,8.23
2023-04-11T19:31:52.699Z,5.97
2023-04-11T19:34:19.278Z,9.38
2023-04-11T19:36:45.809Z,6.22
2023-04-11T19:39:12.356Z,7.25
2023-04-11T19:41:43.864Z,7.80
2023-04-11T19:44:10.760Z,6.35
2023-04-11T19:46:37.225Z,5.68
2023-04-11T19:49:03.839Z,7.05
2023-04-11T19:51:30.396Z,7.20
2023-04-11T19:53:57.255Z,5.50
2023-04-11T19:56:23.890Z,6.00
2023-04-11T19:58:50.367Z,5.93
2023-04-11T20:01:17.121Z,8.38
2023-04-11T20:03:43.769Z,7.85
2023-04-11T20:06:12.282Z,6.05
2023-04-11T20:08:39.679Z,7.78
2023-04-11T20:11:06.407Z,7.57
2023-04-11T20:13:33.763Z,8.95
2023-04-11T20:16:00.895Z,11.38
2023-04-11T20:18:28.716Z,6.97
2023-04-11T20:20:55.342Z,11.70
2023-04-11T20:23:21.821Z,8.13
2023-04-11T20:25:48.360Z,6.65
2023-04-11T20:28:14.910Z,7.35
2023-04-11T20:30:41.828Z,10.02
2023-04-11T20:33:08.352Z,6.50
2023-04-11T20:35:34.905Z,9.77
2023-04-11T20:38:01.478Z,8.38
2023-04-11T20:40:28.139Z,8.35
2023-04-11T20:42:56.403Z,9.23
2023-04-11T20:45:25.604Z,6.68
2023-04-11T20:47:52.414Z,6.82
2023-04-11T20:50:19.668Z,8.63
2023-04-11T20:52:47.201Z,10.10
2023-04-11T20:55:14.452Z,9.73
2023-04-11T20:57:41.028Z,7.00
2023-04-11T21:00:14.076Z,9.95
2023-04-11T21:02:42.886Z,7.22
2023-04-11T21:05:09.738Z,6.53
2023-04-11T21:07:37.094Z,9.50
2023-04-11T21:10:04.891Z,5.72
2023-04-11T21:12:31.367Z,7.90
2023-04-11T21:14:58.687Z,9.85
2023-04-11T21:17:25.465Z,7.90
2023-04-11T21:19:51.975Z,8.50
2023-04-11T21:22:18.439Z,5.47
2023-04-11T21:24:44.861Z,7.03
2023-04-11T21:27:11.306Z,8.77
2023-04-11T21:29:37.733Z,5.45
2023-04-11T21:32:04.233Z,6.18
2023-04-11T21:34:31.174Z,5.28
2023-04-11T21:36:57.688Z,8.60
2023-04-11T21:39:24.184Z,8.65
2023-04-11T21:41:50.640Z,7.22
2023-04-11T21:44:17.160Z,7.32
2023-04-11T21:46:43.694Z,6.80
2023-04-11T21:49:10.884Z,7.68
2023-04-11T21:51:37.351Z,6.85
2023-04-11T21:54:04.479Z,8.02
2023-04-11T21:56:30.988Z,6.55
2023-04-11T21:58:57.580Z,7.60
2023-04-11T22:01:24.256Z,7.63
2023-04-11T22:03:52.330Z,6.45
2023-04-11T22:06:19.042Z,7.13
2023-04-11T22:08:50.594Z,6.05
2023-04-11T22:11:17.662Z,6.95
2023-04-11T22:13:46.432Z,9.73
2023-04-11T22:16:14.477Z,6.20
2023-04-11T22:18:47.106Z,7.70
2023-04-11T22:21:20.159Z,4.68
2023-04-11T22:23:54.360Z,7.35
2023-04-11T22:26:29.270Z,6.70
2023-04-11T22:28:58.304Z,4.80
2023-04-11T22:31:30.673Z,6.35
2023-04-11T22:33:57.914Z,6.15
2023-04-11T22:36:24.770Z,6.05
2023-04-11T22:38:51.201Z,7.93
2023-04-11T22:41:17.824Z,6.50
2023-04-11T22:43:44.343Z,8.77
2023-04-11T22:46:10.995Z,5.93
2023-04-11T22:48:37.818Z,6.38
2023-04-11T22:51:05.967Z,6.70
2023-04-11T22:53:34.059Z,6.47
2023-04-11T22:56:02.017Z,8.80
2023-04-11T22:58:28.640Z,6.88
2023-04-11T23:00:55.636Z,6.38
2023-04-11T23:03:22.399Z,8.65
2023-04-11T23:05:48.944Z,8.63
2023-04-11T23:08:15.723Z,7.25
2023-04-11T23:10:42.591Z,7.55
2023-04-11T23:13:09.311Z,6.22
2023-04-11T23:15:37.294Z,7.53
2023-04-11T23:18:03.885Z,7.45
2023-04-11T23:20:30.435Z,8.32
2023-04-11T23:22:58.336Z,5.47
2023-04-11T23:25:25.286Z,7.18
2023-04-11T23:27:52.526Z,6.22
2023-04-11T23:30:20.078Z,5.10
2023-04-11T23:32:47.174Z,8.82
2023-04-11T23:35:16.728Z,7.07
2023-04-11T23:37:43.231Z,9.25
2023-04-11T23:40:11.042Z,7.00
2023-04-11T23:42:38.430Z,5.78
2023-04-11T23:45:05.886Z,7.70
2023-04-11T23:47:32.541Z,8.23
2023-04-11T23:49:59.014Z,6.10
2023-04-11T23:52:25.576Z,6.22
2023-04-11T23:54:52.042Z,6.13
2023-04-11T23:57:18.533Z,7.18
2023-04-11T23:59:45.162Z,7.35
